PWSweather.com
Personal Weather Stations
Station Observations
METEOC500
Santo Antonio, FunchalPT 2020

Santo AntonioFunchalPT 2020

Lat: 32.678227, Lon: -16.945054

Elevation: 1669.94751

Station Type: WH Series

High Low Average
Temperature 72.7°F22.6°C 60.6°F15.9°C 65.7°F18.7°C
Dew Point 61.2°F16.2°C 52.2°F11.2°C 57.1°F13.9°C
Winds 9.2 mph 14.8 kmh Calm Calm 4.0 mph WSW6.4 kmh WSW
Wind Gusts 15.0 mph24.1 kmh 2.5 mph4.0 kmh 10.0 mph16.1 kmh
Humidity 86% 59% 74%
Pressure 30.22 in1023.4 mb 30.14 in1020.7 mb -
Precipitation 0.00 in0.0 mm - -
Hour Temp Dew Point Humidity Winds Wind Gusts Pressure Precip Precip Rate Daily Precip Total
12:12 AM 61.3°F16.3°C 53.1°F11.7°C 74% 7.8 mph NNW12.6 kmh NNW 12.5 mph20.1 kmh 30.20 in1022.7 mb 0.00 in0.0 mm 0.00 in0.0 mm 0.00 in0.0 mm
12:27 AM 61.3°F16.3°C 52.7°F11.5°C 73% 6.3 mph NNW10.1 kmh NNW 12.5 mph20.1 kmh 30.19 in1022.4 mb 0.00 in0.0 mm 0.00 in0.0 mm 0.00 in0.0 mm
12:42 AM 61.3°F16.3°C 52.7°F11.5°C 73% 6.5 mph NNW10.5 kmh NNW 12.5 mph20.1 kmh 30.19 in1022.4 mb 0.00 in0.0 mm 0.00 in0.0 mm 0.00 in0.0 mm
12:57 AM 61.2°F16.2°C 52.9°F11.6°C 74% 5.4 mph N8.7 kmh N 10.1 mph16.3 kmh 30.20 in1022.7 mb 0.00 in0.0 mm 0.00 in0.0 mm 0.00 in0.0 mm
01:12 AM 61.0°F16.1°C 53.1°F11.7°C 75% 4.7 mph NNW7.6 kmh NNW 10.1 mph16.3 kmh 30.20 in1022.7 mb 0.00 in0.0 mm 0.00 in0.0 mm 0.00 in0.0 mm
01:27 AM 61.0°F16.1°C 53.1°F11.7°C 75% 6.0 mph NNW9.7 kmh NNW 10.1 mph16.3 kmh 30.20 in1022.7 mb 0.00 in0.0 mm 0.00 in0.0 mm 0.00 in0.0 mm
01:42 AM 61.3°F16.3°C 52.2°F11.2°C 72% 6.5 mph NNW10.5 kmh NNW 10.1 mph16.3 kmh 30.19 in1022.4 mb 0.00 in0.0 mm 0.00 in0.0 mm 0.00 in0.0 mm
01:57 AM 62.1°F16.7°C 52.5°F11.4°C 71% 6.5 mph NNW10.5 kmh NNW 10.1 mph16.3 kmh 30.19 in1022.4 mb 0.00 in0.0 mm 0.00 in0.0 mm 0.00 in0.0 mm
02:12 AM 62.4°F16.9°C 52.2°F11.2°C 69% 7.2 mph NW11.6 kmh NW 12.5 mph20.1 kmh 30.18 in1022.0 mb 0.00 in0.0 mm 0.00 in0.0 mm 0.00 in0.0 mm
02:28 AM 62.4°F16.9°C 52.9°F11.6°C 71% 5.6 mph NW9.0 kmh NW 10.1 mph16.3 kmh 30.18 in1022.0 mb 0.00 in0.0 mm 0.00 in0.0 mm 0.00 in0.0 mm
02:43 AM 62.4°F16.9°C 52.5°F11.4°C 70% 7.2 mph NNW11.6 kmh NNW 10.1 mph16.3 kmh 30.17 in1021.7 mb 0.00 in0.0 mm 0.00 in0.0 mm 0.00 in0.0 mm
02:58 AM 62.1°F16.7°C 52.9°F11.6°C 72% 6.0 mph N9.7 kmh N 10.1 mph16.3 kmh 30.17 in1021.7 mb 0.00 in0.0 mm 0.00 in0.0 mm 0.00 in0.0 mm
03:13 AM 61.9°F16.6°C 52.7°F11.5°C 72% 6.3 mph NNW10.1 kmh NNW 10.1 mph16.3 kmh 30.17 in1021.7 mb 0.00 in0.0 mm 0.00 in0.0 mm 0.00 in0.0 mm
03:28 AM 61.7°F16.5°C 53.8°F12.1°C 75% 6.0 mph NNW9.7 kmh NNW 10.1 mph16.3 kmh 30.16 in1021.3 mb 0.00 in0.0 mm 0.00 in0.0 mm 0.00 in0.0 mm
03:43 AM 61.3°F16.3°C 53.1°F11.7°C 74% 5.4 mph NW8.7 kmh NW 10.1 mph16.3 kmh 30.16 in1021.3 mb 0.00 in0.0 mm 0.00 in0.0 mm 0.00 in0.0 mm
03:58 AM 61.3°F16.3°C 53.1°F11.7°C 74% 7.2 mph NNW11.6 kmh NNW 12.5 mph20.1 kmh 30.17 in1021.7 mb 0.00 in0.0 mm 0.00 in0.0 mm 0.00 in0.0 mm
04:13 AM 61.3°F16.3°C 53.4°F11.9°C 75% 6.9 mph NNW11.1 kmh NNW 12.5 mph20.1 kmh 30.16 in1021.3 mb 0.00 in0.0 mm 0.00 in0.0 mm 0.00 in0.0 mm
04:28 AM 61.2°F16.2°C 53.2°F11.8°C 75% 6.3 mph NNW10.1 kmh NNW 10.1 mph16.3 kmh 30.16 in1021.3 mb 0.00 in0.0 mm 0.00 in0.0 mm 0.00 in0.0 mm
04:43 AM 61.0°F16.1°C 53.1°F11.7°C 75% 6.0 mph N9.7 kmh N 10.1 mph16.3 kmh 30.16 in1021.3 mb 0.00 in0.0 mm 0.00 in0.0 mm 0.00 in0.0 mm
04:58 AM 61.2°F16.2°C 52.9°F11.6°C 74% 6.5 mph N10.5 kmh N 12.5 mph20.1 kmh 30.16 in1021.3 mb 0.00 in0.0 mm 0.00 in0.0 mm 0.00 in0.0 mm
05:13 AM 61.3°F16.3°C 53.1°F11.7°C 74% 6.5 mph NNW10.5 kmh NNW 10.1 mph16.3 kmh 30.16 in1021.3 mb 0.00 in0.0 mm 0.00 in0.0 mm 0.00 in0.0 mm
05:28 AM 61.3°F16.3°C 53.4°F11.9°C 75% 6.5 mph N10.5 kmh N 10.1 mph16.3 kmh 30.17 in1021.7 mb 0.00 in0.0 mm 0.00 in0.0 mm 0.00 in0.0 mm
05:43 AM 61.0°F16.1°C 53.4°F11.9°C 76% 5.6 mph N9.0 kmh N 10.1 mph16.3 kmh 30.17 in1021.7 mb 0.00 in0.0 mm 0.00 in0.0 mm 0.00 in0.0 mm
05:58 AM 60.6°F15.9°C 53.1°F11.7°C 76% 6.0 mph N9.7 kmh N 10.1 mph16.3 kmh 30.17 in1021.7 mb 0.00 in0.0 mm 0.00 in0.0 mm 0.00 in0.0 mm
06:13 AM 60.6°F15.9°C 53.1°F11.7°C 76% 4.9 mph N7.9 kmh N 7.6 mph12.2 kmh 30.17 in1021.7 mb 0.00 in0.0 mm 0.00 in0.0 mm 0.00 in0.0 mm
06:28 AM 61.0°F16.1°C 53.1°F11.7°C 75% 5.4 mph NNW8.7 kmh NNW 10.1 mph16.3 kmh 30.18 in1022.0 mb 0.00 in0.0 mm 0.00 in0.0 mm 0.00 in0.0 mm
06:44 AM 61.2°F16.2°C 53.2°F11.8°C 75% 7.2 mph NW11.6 kmh NW 12.5 mph20.1 kmh 30.18 in1022.0 mb 0.00 in0.0 mm 0.00 in0.0 mm 0.00 in0.0 mm
06:59 AM 61.2°F16.2°C 53.2°F11.8°C 75% 6.9 mph NNW11.1 kmh NNW 15.0 mph24.1 kmh 30.18 in1022.0 mb 0.00 in0.0 mm 0.00 in0.0 mm 0.00 in0.0 mm
07:14 AM 61.3°F16.3°C 53.1°F11.7°C 74% 6.5 mph NNW10.5 kmh NNW 12.5 mph20.1 kmh 30.18 in1022.0 mb 0.00 in0.0 mm 0.00 in0.0 mm 0.00 in0.0 mm
07:29 AM 61.5°F16.4°C 54.0°F12.2°C 76% 6.0 mph N9.7 kmh N 10.1 mph16.3 kmh 30.19 in1022.4 mb 0.00 in0.0 mm 0.00 in0.0 mm 0.00 in0.0 mm
07:44 AM 61.7°F16.5°C 53.8°F12.1°C 75% 4.9 mph NNW7.9 kmh NNW 10.1 mph16.3 kmh 30.19 in1022.4 mb 0.00 in0.0 mm 0.00 in0.0 mm 0.00 in0.0 mm
07:59 AM 62.1°F16.7°C 54.0°F12.2°C 75% 6.0 mph NNW9.7 kmh NNW 10.1 mph16.3 kmh 30.19 in1022.4 mb 0.00 in0.0 mm 0.00 in0.0 mm 0.00 in0.0 mm
08:14 AM 62.6°F17.0°C 54.5°F12.5°C 75% 4.0 mph N6.4 kmh N 10.1 mph16.3 kmh 30.19 in1022.4 mb 0.00 in0.0 mm 0.00 in0.0 mm 0.00 in0.0 mm
08:29 AM 63.1°F17.3°C 55.4°F13.0°C 76% 4.0 mph NNW6.4 kmh NNW 10.1 mph16.3 kmh 30.20 in1022.7 mb 0.00 in0.0 mm 0.00 in0.0 mm 0.00 in0.0 mm
08:44 AM 63.9°F17.7°C 55.4°F13.0°C 74% 0.9 mph NNW1.4 kmh NNW 7.6 mph12.2 kmh 30.20 in1022.7 mb 0.00 in0.0 mm 0.00 in0.0 mm 0.00 in0.0 mm
08:59 AM 65.5°F18.6°C 54.7°F12.6°C 68% Calm Calm 2.5 mph4.0 kmh 30.20 in1022.7 mb 0.00 in0.0 mm 0.00 in0.0 mm 0.00 in0.0 mm
09:14 AM 66.6°F19.2°C 57.2°F14.0°C 72% Calm Calm 4.9 mph7.9 kmh 30.21 in1023.0 mb 0.00 in0.0 mm 0.00 in0.0 mm 0.00 in0.0 mm
09:29 AM 67.1°F19.5°C 55.4°F13.0°C 66% 1.8 mph ESE2.9 kmh ESE 4.9 mph7.9 kmh 30.20 in1022.7 mb 0.00 in0.0 mm 0.00 in0.0 mm 0.00 in0.0 mm
09:44 AM 67.8°F19.9°C 56.1°F13.4°C 66% 2.9 mph SSW4.7 kmh SSW 7.6 mph12.2 kmh 30.21 in1023.0 mb 0.00 in0.0 mm 0.00 in0.0 mm 0.00 in0.0 mm
09:59 AM 68.5°F20.3°C 56.7°F13.7°C 66% 2.2 mph S3.5 kmh S 7.6 mph12.2 kmh 30.21 in1023.0 mb 0.00 in0.0 mm 0.00 in0.0 mm 0.00 in0.0 mm
10:14 AM 69.1°F20.6°C 57.2°F14.0°C 66% Calm Calm 7.6 mph12.2 kmh 30.21 in1023.0 mb 0.00 in0.0 mm 0.00 in0.0 mm 0.00 in0.0 mm
10:29 AM 70.3°F21.3°C 56.7°F13.7°C 62% 3.4 mph SE5.5 kmh SE 7.6 mph12.2 kmh 30.21 in1023.0 mb 0.00 in0.0 mm 0.00 in0.0 mm 0.00 in0.0 mm
10:45 AM 72.0°F22.2°C 56.8°F13.8°C 59% 4.7 mph SSW7.6 kmh SSW 10.1 mph16.3 kmh 30.22 in1023.4 mb 0.00 in0.0 mm 0.00 in0.0 mm 0.00 in0.0 mm
11:00 AM 72.5°F22.5°C 58.3°F14.6°C 61% 3.4 mph E5.5 kmh E 15.0 mph24.1 kmh 30.21 in1023.0 mb 0.00 in0.0 mm 0.00 in0.0 mm 0.00 in0.0 mm
11:15 AM 72.7°F22.6°C 59.4°F15.2°C 63% 4.9 mph SSE7.9 kmh SSE 12.5 mph20.1 kmh 30.20 in1022.7 mb 0.00 in0.0 mm 0.00 in0.0 mm 0.00 in0.0 mm
11:30 AM 72.7°F22.6°C 59.7°F15.4°C 64% 3.8 mph E6.1 kmh E 12.5 mph20.1 kmh 30.21 in1023.0 mb 0.00 in0.0 mm 0.00 in0.0 mm 0.00 in0.0 mm
11:45 AM 72.7°F22.6°C 59.4°F15.2°C 63% 0.9 mph E1.4 kmh E 12.5 mph20.1 kmh 30.20 in1022.7 mb 0.00 in0.0 mm 0.00 in0.0 mm 0.00 in0.0 mm
12:00 PM 72.5°F22.5°C 59.2°F15.1°C 63% 6.0 mph S9.7 kmh S 12.5 mph20.1 kmh 30.20 in1022.7 mb 0.00 in0.0 mm 0.00 in0.0 mm 0.00 in0.0 mm
12:15 PM 72.0°F22.2°C 59.5°F15.3°C 65% 9.2 mph SE14.8 kmh SE 12.5 mph20.1 kmh 30.20 in1022.7 mb 0.00 in0.0 mm 0.00 in0.0 mm 0.00 in0.0 mm
12:30 PM 72.1°F22.3°C 60.1°F15.6°C 66% 9.2 mph SE14.8 kmh SE 15.0 mph24.1 kmh 30.19 in1022.4 mb 0.00 in0.0 mm 0.00 in0.0 mm 0.00 in0.0 mm
12:45 PM 72.1°F22.3°C 61.0°F16.1°C 68% 1.8 mph SW2.9 kmh SW 12.5 mph20.1 kmh 30.20 in1022.7 mb 0.00 in0.0 mm 0.00 in0.0 mm 0.00 in0.0 mm
01:00 PM 71.1°F21.7°C 60.8°F16.0°C 70% 2.2 mph SW3.5 kmh SW 15.0 mph24.1 kmh 30.19 in1022.4 mb 0.00 in0.0 mm 0.00 in0.0 mm 0.00 in0.0 mm
01:15 PM 70.7°F21.5°C 60.8°F16.0°C 71% 2.9 mph SSE4.7 kmh SSE 12.5 mph20.1 kmh 30.19 in1022.4 mb 0.00 in0.0 mm 0.00 in0.0 mm 0.00 in0.0 mm
01:30 PM 70.3°F21.3°C 60.8°F16.0°C 72% 2.2 mph SSW3.5 kmh SSW 12.5 mph20.1 kmh 30.19 in1022.4 mb 0.00 in0.0 mm 0.00 in0.0 mm 0.00 in0.0 mm
01:45 PM 69.8°F21.0°C 60.8°F16.0°C 73% 2.9 mph SE4.7 kmh SE 10.1 mph16.3 kmh 30.18 in1022.0 mb 0.00 in0.0 mm 0.00 in0.0 mm 0.00 in0.0 mm
02:00 PM 69.4°F20.8°C 60.4°F15.8°C 73% 3.1 mph S5.0 kmh S 10.1 mph16.3 kmh 30.18 in1022.0 mb 0.00 in0.0 mm 0.00 in0.0 mm 0.00 in0.0 mm
02:15 PM 69.3°F20.7°C 61.0°F16.1°C 75% 3.4 mph SW5.5 kmh SW 10.1 mph16.3 kmh 30.18 in1022.0 mb 0.00 in0.0 mm 0.00 in0.0 mm 0.00 in0.0 mm
02:30 PM 69.3°F20.7°C 60.6°F15.9°C 74% Calm Calm 10.1 mph16.3 kmh 30.17 in1021.7 mb 0.00 in0.0 mm 0.00 in0.0 mm 0.00 in0.0 mm
02:45 PM 69.3°F20.7°C 60.6°F15.9°C 74% 3.1 mph SSE5.0 kmh SSE 7.6 mph12.2 kmh 30.17 in1021.7 mb 0.00 in0.0 mm 0.00 in0.0 mm 0.00 in0.0 mm
03:01 PM 69.6°F20.9°C 60.6°F15.9°C 73% 4.5 mph SSE7.2 kmh SSE 7.6 mph12.2 kmh 30.16 in1021.3 mb 0.00 in0.0 mm 0.00 in0.0 mm 0.00 in0.0 mm
03:16 PM 69.8°F21.0°C 60.8°F16.0°C 73% 3.1 mph SE5.0 kmh SE 10.1 mph16.3 kmh 30.16 in1021.3 mb 0.00 in0.0 mm 0.00 in0.0 mm 0.00 in0.0 mm
03:31 PM 69.8°F21.0°C 60.8°F16.0°C 73% 0.7 mph SW1.1 kmh SW 10.1 mph16.3 kmh 30.16 in1021.3 mb 0.00 in0.0 mm 0.00 in0.0 mm 0.00 in0.0 mm
03:46 PM 70.5°F21.4°C 59.9°F15.5°C 69% 3.1 mph SW5.0 kmh SW 10.1 mph16.3 kmh 30.15 in1021.0 mb 0.00 in0.0 mm 0.00 in0.0 mm 0.00 in0.0 mm
04:01 PM 70.7°F21.5°C 61.2°F16.2°C 72% 4.7 mph SW7.6 kmh SW 10.1 mph16.3 kmh 30.15 in1021.0 mb 0.00 in0.0 mm 0.00 in0.0 mm 0.00 in0.0 mm
04:16 PM 70.3°F21.3°C 60.4°F15.8°C 71% 6.9 mph SE11.1 kmh SE 10.1 mph16.3 kmh 30.15 in1021.0 mb 0.00 in0.0 mm 0.00 in0.0 mm 0.00 in0.0 mm
04:31 PM 69.8°F21.0°C 59.9°F15.5°C 71% 3.4 mph S5.5 kmh S 10.1 mph16.3 kmh 30.15 in1021.0 mb 0.00 in0.0 mm 0.00 in0.0 mm 0.00 in0.0 mm
04:46 PM 69.4°F20.8°C 59.5°F15.3°C 71% Calm Calm 7.6 mph12.2 kmh 30.15 in1021.0 mb 0.00 in0.0 mm 0.00 in0.0 mm 0.00 in0.0 mm
05:01 PM 70.0°F21.1°C 59.4°F15.2°C 69% 4.7 mph SE7.6 kmh SE 7.6 mph12.2 kmh 30.14 in1020.7 mb 0.00 in0.0 mm 0.00 in0.0 mm 0.00 in0.0 mm
05:16 PM 70.3°F21.3°C 60.1°F15.6°C 70% 7.2 mph SSE11.6 kmh SSE 10.1 mph16.3 kmh 30.15 in1021.0 mb 0.00 in0.0 mm 0.00 in0.0 mm 0.00 in0.0 mm
05:31 PM 69.8°F21.0°C 60.4°F15.8°C 72% 2.9 mph S4.7 kmh S 12.5 mph20.1 kmh 30.15 in1021.0 mb 0.00 in0.0 mm 0.00 in0.0 mm 0.00 in0.0 mm
05:46 PM 69.4°F20.8°C 60.1°F15.6°C 72% 1.3 mph S2.1 kmh S 10.1 mph16.3 kmh 30.15 in1021.0 mb 0.00 in0.0 mm 0.00 in0.0 mm 0.00 in0.0 mm
06:01 PM 68.9°F20.5°C 59.9°F15.5°C 73% 6.0 mph SE9.7 kmh SE 10.1 mph16.3 kmh 30.15 in1021.0 mb 0.00 in0.0 mm 0.00 in0.0 mm 0.00 in0.0 mm
06:16 PM 68.4°F20.2°C 59.7°F15.4°C 74% 3.1 mph S5.0 kmh S 7.6 mph12.2 kmh 30.15 in1021.0 mb 0.00 in0.0 mm 0.00 in0.0 mm 0.00 in0.0 mm
06:31 PM 67.8°F19.9°C 59.9°F15.5°C 76% 0.9 mph S1.4 kmh S 4.9 mph7.9 kmh 30.14 in1020.7 mb 0.00 in0.0 mm 0.00 in0.0 mm 0.00 in0.0 mm
06:46 PM 67.5°F19.7°C 60.1°F15.6°C 77% Calm Calm 4.9 mph7.9 kmh 30.15 in1021.0 mb 0.00 in0.0 mm 0.00 in0.0 mm 0.00 in0.0 mm
07:02 PM 67.1°F19.5°C 60.1°F15.6°C 78% Calm Calm 4.9 mph7.9 kmh 30.15 in1021.0 mb 0.00 in0.0 mm 0.00 in0.0 mm 0.00 in0.0 mm
07:17 PM 66.7°F19.3°C 60.1°F15.6°C 79% Calm Calm 4.9 mph7.9 kmh 30.15 in1021.0 mb 0.00 in0.0 mm 0.00 in0.0 mm 0.00 in0.0 mm
07:32 PM 66.0°F18.9°C 59.7°F15.4°C 80% 2.2 mph N3.5 kmh N 4.9 mph7.9 kmh 30.16 in1021.3 mb 0.00 in0.0 mm 0.00 in0.0 mm 0.00 in0.0 mm
07:47 PM 65.5°F18.6°C 59.5°F15.3°C 81% 1.8 mph NW2.9 kmh NW 4.9 mph7.9 kmh 30.16 in1021.3 mb 0.00 in0.0 mm 0.00 in0.0 mm 0.00 in0.0 mm
08:02 PM 64.9°F18.3°C 59.4°F15.2°C 82% 2.5 mph NNW4.0 kmh NNW 4.9 mph7.9 kmh 30.16 in1021.3 mb 0.00 in0.0 mm 0.00 in0.0 mm 0.00 in0.0 mm
08:17 PM 64.8°F18.2°C 59.5°F15.3°C 83% 3.8 mph NW6.1 kmh NW 7.6 mph12.2 kmh 30.16 in1021.3 mb 0.00 in0.0 mm 0.00 in0.0 mm 0.00 in0.0 mm
08:32 PM 64.4°F18.0°C 59.2°F15.1°C 83% 3.8 mph N6.1 kmh N 7.6 mph12.2 kmh 30.16 in1021.3 mb 0.00 in0.0 mm 0.00 in0.0 mm 0.00 in0.0 mm
08:47 PM 64.0°F17.8°C 59.2°F15.1°C 84% 6.0 mph NNW9.7 kmh NNW 10.1 mph16.3 kmh 30.16 in1021.3 mb 0.00 in0.0 mm 0.00 in0.0 mm 0.00 in0.0 mm
09:02 PM 63.7°F17.6°C 58.5°F14.7°C 83% 4.9 mph NNW7.9 kmh NNW 10.1 mph16.3 kmh 30.16 in1021.3 mb 0.00 in0.0 mm 0.00 in0.0 mm 0.00 in0.0 mm
09:17 PM 63.3°F17.4°C 58.5°F14.7°C 84% 4.9 mph N7.9 kmh N 7.6 mph12.2 kmh 30.17 in1021.7 mb 0.00 in0.0 mm 0.00 in0.0 mm 0.00 in0.0 mm
09:32 PM 63.3°F17.4°C 58.5°F14.7°C 84% 6.9 mph NW11.1 kmh NW 10.1 mph16.3 kmh 30.17 in1021.7 mb 0.00 in0.0 mm 0.00 in0.0 mm 0.00 in0.0 mm
09:47 PM 63.5°F17.5°C 58.6°F14.8°C 84% 3.4 mph NNW5.5 kmh NNW 10.1 mph16.3 kmh 30.17 in1021.7 mb 0.00 in0.0 mm 0.00 in0.0 mm 0.00 in0.0 mm
10:02 PM 63.7°F17.6°C 58.5°F14.7°C 83% 3.1 mph N5.0 kmh N 7.6 mph12.2 kmh 30.17 in1021.7 mb 0.00 in0.0 mm 0.00 in0.0 mm 0.00 in0.0 mm
10:17 PM 64.0°F17.8°C 59.2°F15.1°C 84% 3.1 mph NNW5.0 kmh NNW 7.6 mph12.2 kmh 30.17 in1021.7 mb 0.00 in0.0 mm 0.00 in0.0 mm 0.00 in0.0 mm
10:32 PM 64.0°F17.8°C 59.2°F15.1°C 84% 3.8 mph NNW6.1 kmh NNW 7.6 mph12.2 kmh 30.17 in1021.7 mb 0.00 in0.0 mm 0.00 in0.0 mm 0.00 in0.0 mm
10:47 PM 63.9°F17.7°C 59.0°F15.0°C 84% 4.9 mph NW7.9 kmh NW 7.6 mph12.2 kmh 30.18 in1022.0 mb 0.00 in0.0 mm 0.00 in0.0 mm 0.00 in0.0 mm
11:02 PM 64.0°F17.8°C 59.2°F15.1°C 84% 4.9 mph NNW7.9 kmh NNW 10.1 mph16.3 kmh 30.17 in1021.7 mb 0.00 in0.0 mm 0.00 in0.0 mm 0.00 in0.0 mm
11:18 PM 63.7°F17.6°C 58.8°F14.9°C 84% 5.4 mph NNW8.7 kmh NNW 10.1 mph16.3 kmh 30.17 in1021.7 mb 0.00 in0.0 mm 0.00 in0.0 mm 0.00 in0.0 mm
11:33 PM 63.1°F17.3°C 58.6°F14.8°C 85% 6.3 mph NW10.1 kmh NW 10.1 mph16.3 kmh 30.17 in1021.7 mb 0.00 in0.0 mm 0.00 in0.0 mm 0.00 in0.0 mm
11:48 PM 62.6°F17.0°C 58.3°F14.6°C 86% 4.7 mph NW7.6 kmh NW 10.1 mph16.3 kmh 30.17 in1021.7 mb 0.00 in0.0 mm 0.00 in0.0 mm 0.00 in0.0 mm